createdAt,value
2019-04-19T00:00:25.166Z,75.72
2019-04-19T00:01:26.734Z,75.91
2019-04-19T00:02:35.573Z,75.62
2019-04-19T00:03:32.802Z,75.62
2019-04-19T00:04:31.209Z,75.62
2019-04-19T00:05:35.860Z,76.20
2019-04-19T00:06:36.511Z,75.91
2019-04-19T00:07:35.756Z,76.10
2019-04-19T00:08:50.691Z,76.01
2019-04-19T00:09:47.090Z,76.29
2019-04-19T00:10:47.826Z,76.48
2019-04-19T00:11:45.678Z,76.57
2019-04-19T00:12:50.017Z,76.76
2019-04-19T00:13:43.044Z,76.48
2019-04-19T00:14:44.430Z,76.39
2019-04-19T00:15:45.649Z,77.05
2019-04-19T00:16:46.988Z,76.57
2019-04-19T00:17:52.576Z,76.86
2019-04-19T00:19:17.027Z,77.24
2019-04-19T00:20:20.947Z,77.34
2019-04-19T00:21:15.219Z,77.62
2019-04-19T00:22:13.339Z,77.24
2019-04-19T00:23:10.148Z,77.34
2019-04-19T00:23:58.245Z,77.24
2019-04-19T00:24:59.235Z,77.24
2019-04-19T00:26:01.851Z,77.53
2019-04-19T00:27:02.634Z,77.81
2019-04-19T00:28:05.177Z,77.72
2019-04-19T00:29:07.456Z,77.43
2019-04-19T00:30:19.240Z,78.00
2019-04-19T00:31:22.582Z,77.62
2019-04-19T00:32:24.424Z,77.81
2019-04-19T00:33:20.290Z,78.48
2019-04-19T00:34:12.439Z,78.77
2019-04-19T00:35:13.617Z,78.86
2019-04-19T00:36:16.208Z,79.14
2019-04-19T00:37:16.413Z,79.49
2019-04-19T00:38:35.185Z,80.05
2019-04-19T00:39:33.510Z,80.15
2019-04-19T00:40:36.849Z,80.63
2019-04-19T00:41:35.824Z,80.63
2019-04-19T00:42:35.690Z,80.63
2019-04-19T00:43:40.932Z,80.63
2019-04-19T00:44:46.600Z,81.01
2019-04-19T00:45:38.667Z,80.91
2019-04-19T00:46:52.217Z,81.38
2019-04-19T00:47:46.504Z,81.58
2019-04-19T00:48:47.501Z,81.58
2019-04-19T00:49:44.497Z,81.96
2019-04-19T00:50:48.571Z,81.96
2019-04-19T00:51:50.413Z,82.34
2019-04-19T00:52:55.705Z,82.24
2019-04-19T00:53:46.610Z,82.43
2019-04-19T00:54:52.041Z,82.43
2019-04-19T00:55:52.185Z,82.34
2019-04-19T00:56:51.311Z,82.15
2019-04-19T00:57:48.975Z,82.81
2019-04-19T00:58:51.606Z,82.34
2019-04-19T00:59:49.033Z,82.34
2019-04-19T01:00:49.099Z,82.34
2019-04-19T01:01:56.551Z,82.15
2019-04-19T01:02:53.409Z,82.62
2019-04-19T01:03:52.782Z,82.71
2019-04-19T01:04:58.256Z,82.43
2019-04-19T01:06:01.870Z,82.43
2019-04-19T01:07:00.539Z,82.15
2019-04-19T01:08:00.021Z,82.34
2019-04-19T01:09:15.480Z,82.43
2019-04-19T01:10:15.426Z,82.43
2019-04-19T01:11:12.981Z,82.34
2019-04-19T01:12:15.021Z,82.53
2019-04-19T01:13:13.851Z,82.24
2019-04-19T01:14:18.155Z,82.15
2019-04-19T01:15:21.017Z,82.81
2019-04-19T01:16:18.605Z,82.62
2019-04-19T01:17:22.770Z,82.53
2019-04-19T01:18:23.288Z,82.81
2019-04-19T01:19:16.286Z,82.34
2019-04-19T01:20:15.309Z,82.34
2019-04-19T01:21:15.797Z,82.15
2019-04-19T01:22:23.147Z,82.53
2019-04-19T01:23:19.504Z,82.43
2019-04-19T01:24:26.099Z,82.43
2019-04-19T01:25:24.790Z,82.43
2019-04-19T01:26:23.503Z,82.43
2019-04-19T01:27:27.858Z,82.43
2019-04-19T01:28:27.835Z,82.05
2019-04-19T01:29:29.557Z,82.05
2019-04-19T01:30:34.473Z,81.67
2019-04-19T01:31:29.762Z,81.48
2019-04-19T01:32:33.949Z,81.67
2019-04-19T01:33:37.399Z,81.77
2019-04-19T01:34:34.098Z,81.96
2019-04-19T01:35:42.184Z,81.48
2019-04-19T01:36:38.995Z,81.29
2019-04-19T01:37:37.393Z,81.38
2019-04-19T01:38:44.687Z,81.29
2019-04-19T01:39:56.814Z,81.10
2019-04-19T01:40:59.379Z,80.63
2019-04-19T01:41:56.129Z,81.10
2019-04-19T01:42:57.688Z,81.10
2019-04-19T01:44:01.058Z,81.20
2019-04-19T01:45:02.480Z,81.29
2019-04-19T01:46:03.821Z,80.72
2019-04-19T01:47:06.644Z,80.58
2019-04-19T01:48:07.568Z,80.82
2019-04-19T01:49:05.448Z,80.63
2019-04-19T01:50:06.456Z,80.72
2019-04-19T01:51:11.912Z,80.15
2019-04-19T01:52:12.305Z,80.15
2019-04-19T01:53:19.375Z,80.34
2019-04-19T01:54:17.425Z,79.96
2019-04-19T01:55:09.679Z,79.86
2019-04-19T01:56:08.432Z,79.86
2019-04-19T01:57:05.914Z,79.96
2019-04-19T01:58:09.371Z,80.05
2019-04-19T01:59:06.319Z,79.96
2019-04-19T02:00:09.854Z,79.68
2019-04-19T02:01:14.476Z,79.68
2019-04-19T02:02:14.622Z,79.49
2019-04-19T02:03:11.232Z,79.96
2019-04-19T02:04:19.066Z,79.96
2019-04-19T02:05:16.674Z,79.77
2019-04-19T02:06:16.656Z,79.49
2019-04-19T02:07:19.781Z,79.68
2019-04-19T02:08:18.870Z,79.63
2019-04-19T02:09:29.282Z,79.58
2019-04-19T02:10:35.167Z,79.68
2019-04-19T02:11:35.092Z,79.49
2019-04-19T02:12:34.543Z,79.49
2019-04-19T02:13:30.169Z,79.58
2019-04-19T02:14:36.316Z,79.63
2019-04-19T02:15:35.879Z,79.73
2019-04-19T02:16:29.791Z,79.77
2019-04-19T02:17:34.822Z,79.86
2019-04-19T02:18:32.492Z,79.20
2019-04-19T02:19:33.788Z,79.25
2019-04-19T02:20:40.694Z,79.16
2019-04-19T02:21:38.198Z,79.73
2019-04-19T02:22:39.298Z,79.16
2019-04-19T02:23:44.645Z,79.68
2019-04-19T02:24:44.148Z,79.44
2019-04-19T02:25:41.419Z,79.16
2019-04-19T02:26:46.350Z,79.20
2019-04-19T02:27:46.665Z,78.97
2019-04-19T02:28:45.807Z,78.97
2019-04-19T02:29:52.876Z,79.01
2019-04-19T02:31:06.418Z,79.30
2019-04-19T02:32:12.885Z,79.01
2019-04-19T02:33:17.851Z,78.88
2019-04-19T02:34:27.233Z,78.91
2019-04-19T02:36:25.231Z,78.16
2019-04-19T02:37:19.658Z,78.16
2019-04-19T02:38:21.315Z,77.36
2019-04-19T02:39:29.384Z,77.49
2019-04-19T02:40:45.111Z,77.58
2019-04-19T02:41:36.055Z,77.49
2019-04-19T02:43:36.204Z,77.11
2019-04-19T02:44:36.232Z,77.39
2019-04-19T02:45:33.507Z,76.82
2019-04-19T02:46:42.828Z,77.11
2019-04-19T02:47:39.904Z,76.73
2019-04-19T02:48:44.960Z,76.82
2019-04-19T02:51:46.496Z,76.16
2019-04-19T02:52:46.867Z,75.68
2019-04-19T02:53:48.926Z,75.59
2019-04-19T02:54:54.096Z,75.59
2019-04-19T02:55:53.079Z,75.68
2019-04-19T02:58:57.169Z,75.40
2019-04-19T03:00:04.411Z,75.40
2019-04-19T03:01:00.468Z,75.40
2019-04-19T03:02:11.835Z,75.49
2019-04-19T03:03:03.888Z,75.21
2019-04-19T03:04:13.955Z,75.30
2019-04-19T03:05:15.009Z,75.11
2019-04-19T03:05:59.943Z,74.82
2019-04-19T03:06:47.906Z,74.82
2019-04-19T03:07:40.495Z,74.44
2019-04-19T03:08:41.979Z,74.26
2019-04-19T03:09:44.069Z,74.73
2019-04-19T03:10:58.071Z,75.11
2019-04-19T03:11:56.066Z,75.07
2019-04-19T03:13:04.602Z,75.07
2019-04-19T03:14:03.271Z,75.59
2019-04-19T03:15:01.780Z,75.40
2019-04-19T03:16:02.796Z,75.07
2019-04-19T03:17:11.329Z,74.88
2019-04-19T03:18:15.868Z,74.79
2019-04-19T03:19:06.445Z,75.17
2019-04-19T03:20:12.658Z,74.69
2019-04-19T03:21:18.921Z,74.12
2019-04-19T03:22:19.630Z,74.69
2019-04-19T03:23:15.223Z,74.69
2019-04-19T03:24:15.415Z,74.51
2019-04-19T03:25:21.354Z,74.69
2019-04-19T03:26:20.782Z,74.69
2019-04-19T03:27:13.948Z,75.07
2019-04-19T03:28:18.485Z,74.41
2019-04-19T03:29:18.445Z,74.22
2019-04-19T03:30:29.535Z,74.07
2019-04-19T03:32:56.133Z,73.93
2019-04-19T03:34:50.297Z,74.41
2019-04-19T03:35:40.991Z,74.12
2019-04-19T03:36:39.079Z,74.22
2019-04-19T03:37:41.128Z,74.60
2019-04-19T03:38:38.943Z,74.60
2019-04-19T03:39:44.679Z,74.79
2019-04-19T03:40:44.479Z,74.98
2019-04-19T03:41:59.848Z,75.07
2019-04-19T03:42:47.408Z,74.82
2019-04-19T03:44:06.184Z,75.02
2019-04-19T03:44:49.302Z,75.07
2019-04-19T03:45:56.662Z,74.82
2019-04-19T03:47:00.495Z,74.92
2019-04-19T03:47:59.947Z,74.69
2019-04-19T03:48:51.454Z,74.98
2019-04-19T03:49:59.794Z,74.69
2019-04-19T03:51:00.369Z,74.69
2019-04-19T03:52:08.881Z,74.79
2019-04-19T03:53:01.023Z,74.41
2019-04-19T03:54:00.133Z,74.69
2019-04-19T03:55:06.058Z,74.03
2019-04-19T03:56:13.119Z,74.22
2019-04-19T03:57:00.294Z,74.31
2019-04-19T03:57:58.093Z,74.69
2019-04-19T03:58:53.069Z,73.93
2019-04-19T03:59:52.305Z,74.41
2019-04-19T04:00:53.857Z,74.03
2019-04-19T04:01:56.790Z,73.93
2019-04-19T04:02:56.403Z,73.84
2019-04-19T04:04:07.386Z,74.03
2019-04-19T04:05:02.626Z,73.84
2019-04-19T04:06:00.113Z,73.93
2019-04-19T04:07:07.066Z,73.97
2019-04-19T04:08:09.043Z,73.93
2019-04-19T04:09:06.772Z,73.78
2019-04-19T04:10:06.651Z,73.84
2019-04-19T04:11:11.616Z,73.74
2019-04-19T04:12:21.027Z,73.74
2019-04-19T04:13:21.341Z,73.93
2019-04-19T04:14:23.887Z,74.12
2019-04-19T04:15:23.918Z,73.93
2019-04-19T04:16:23.999Z,73.84
2019-04-19T04:17:14.978Z,73.65
2019-04-19T04:18:17.515Z,74.03
2019-04-19T04:19:18.532Z,74.60
2019-04-19T04:20:19.837Z,74.41
2019-04-19T04:21:27.321Z,74.41
2019-04-19T04:22:27.800Z,73.93
2019-04-19T04:23:29.911Z,74.22
2019-04-19T04:24:30.072Z,74.12
2019-04-19T04:25:30.212Z,73.93
2019-04-19T04:26:38.653Z,74.03
2019-04-19T04:27:39.883Z,74.31
2019-04-19T04:28:44.713Z,74.60
2019-04-19T04:29:37.399Z,74.63
2019-04-19T04:30:42.079Z,74.51
2019-04-19T04:31:43.599Z,74.22
2019-04-19T04:32:50.580Z,74.60
2019-04-19T04:33:49.379Z,74.54
2019-04-19T04:34:49.661Z,74.60
2019-04-19T04:35:56.162Z,74.44
2019-04-19T04:36:54.610Z,74.92
2019-04-19T04:37:56.728Z,75.02
2019-04-19T04:38:46.128Z,74.82
2019-04-19T04:39:45.152Z,74.54
2019-04-19T04:40:46.598Z,74.44
2019-04-19T04:41:48.676Z,74.54
2019-04-19T04:43:07.391Z,74.44
2019-04-19T04:44:11.717Z,74.63
2019-04-19T04:45:18.850Z,74.54
2019-04-19T04:46:21.081Z,74.73
2019-04-19T04:47:14.859Z,74.44
2019-04-19T04:48:10.031Z,73.78
2019-04-19T04:49:22.064Z,73.69
2019-04-19T04:50:19.273Z,73.82
2019-04-19T04:51:23.968Z,73.82
2019-04-19T04:52:11.346Z,73.72
2019-04-19T04:53:03.131Z,73.53
2019-04-19T04:54:04.101Z,73.06
2019-04-19T04:55:05.469Z,73.15
2019-04-19T04:56:08.924Z,73.25
2019-04-19T04:57:13.049Z,72.86
2019-04-19T04:58:18.696Z,72.49
2019-04-19T04:59:15.826Z,73.25
2019-04-19T05:00:13.848Z,72.77
2019-04-19T05:01:26.611Z,72.96
2019-04-19T05:02:28.960Z,72.77
2019-04-19T05:03:37.801Z,72.77
2019-04-19T05:04:29.676Z,72.58
2019-04-19T05:05:34.542Z,72.58
2019-04-19T05:06:34.081Z,72.33
2019-04-19T05:07:39.032Z,72.52
2019-04-19T05:08:40.379Z,72.52
2019-04-19T05:09:44.684Z,72.52
2019-04-19T05:10:40.937Z,72.33
2019-04-19T05:11:47.254Z,72.14
2019-04-19T05:13:07.744Z,71.86
2019-04-19T05:13:51.397Z,71.38
2019-04-19T05:14:47.834Z,71.57
2019-04-19T05:15:48.131Z,71.57
2019-04-19T05:17:03.871Z,71.86
2019-04-19T05:17:58.080Z,71.67
2019-04-19T05:18:54.133Z,71.47
2019-04-19T05:19:56.381Z,70.81
2019-04-19T05:20:51.817Z,71.00
2019-04-19T05:22:00.960Z,70.75
2019-04-19T05:22:58.686Z,70.56
2019-04-19T05:24:05.186Z,70.65
2019-04-19T05:25:12.366Z,70.65
2019-04-19T05:26:18.021Z,70.08
2019-04-19T05:27:11.680Z,69.99
2019-04-19T05:28:08.171Z,69.42
2019-04-19T05:29:07.639Z,69.99
2019-04-19T05:29:55.811Z,69.32
2019-04-19T05:30:59.090Z,69.51
2019-04-19T05:32:03.878Z,69.51
2019-04-19T05:33:08.555Z,69.17
2019-04-19T05:34:19.266Z,68.78
2019-04-19T05:35:12.049Z,69.17
2019-04-19T05:36:19.644Z,68.98
2019-04-19T05:37:14.077Z,68.88
2019-04-19T05:38:15.105Z,68.98
2019-04-19T05:39:26.742Z,68.50
2019-04-19T05:40:23.056Z,68.30
2019-04-19T05:41:22.910Z,68.50
2019-04-19T05:42:27.613Z,68.30
2019-04-19T05:43:47.538Z,68.53
2019-04-19T05:44:37.462Z,68.63
2019-04-19T05:45:40.506Z,68.82
2019-04-19T05:46:37.506Z,68.24
2019-04-19T05:47:29.296Z,67.96
2019-04-19T05:48:28.194Z,68.63
2019-04-19T05:49:36.082Z,68.63
2019-04-19T05:50:35.619Z,68.24
2019-04-19T05:51:43.795Z,68.15
2019-04-19T05:52:39.870Z,68.53
2019-04-19T05:53:33.018Z,69.01
2019-04-19T05:54:25.725Z,69.01
2019-04-19T05:55:26.606Z,69.01
2019-04-19T05:56:28.512Z,68.44
2019-04-19T05:57:47.457Z,68.53
2019-04-19T05:58:41.362Z,68.63
2019-04-19T05:59:42.520Z,68.66
2019-04-19T06:00:48.520Z,68.34
2019-04-19T06:01:50.023Z,68.15
2019-04-19T06:02:50.255Z,67.99
2019-04-19T06:03:50.399Z,68.18
2019-04-19T06:05:07.739Z,68.18
2019-04-19T06:07:01.626Z,67.90
2019-04-19T06:07:56.110Z,67.23
2019-04-19T06:08:45.640Z,67.33
2019-04-19T06:09:46.058Z,67.42
2019-04-19T06:10:53.455Z,67.04
2019-04-19T06:11:49.597Z,65.42
2019-04-19T06:12:56.291Z,65.13
2019-04-19T06:14:15.931Z,65.80
2019-04-19T06:15:14.957Z,65.80
2019-04-19T06:16:11.512Z,65.52
2019-04-19T06:17:08.859Z,65.61
2019-04-19T06:18:13.306Z,65.80
2019-04-19T06:19:16.724Z,65.55
2019-04-19T06:20:16.033Z,65.55
2019-04-19T06:22:13.079Z,64.50
2019-04-19T06:23:24.115Z,63.83
2019-04-19T06:24:30.054Z,64.21
2019-04-19T06:25:20.071Z,64.59
2019-04-19T06:27:42.616Z,64.05
2019-04-19T06:28:30.538Z,63.57
2019-04-19T06:29:39.342Z,62.81
2019-04-19T06:30:31.185Z,62.71
2019-04-19T06:32:42.107Z,62.08
2019-04-19T06:33:38.712Z,62.18
2019-04-19T06:34:36.514Z,62.18
2019-04-19T06:35:32.608Z,62.27
2019-04-19T06:36:22.919Z,61.03
2019-04-19T06:37:27.652Z,60.77
2019-04-19T06:38:24.891Z,60.77
2019-04-19T06:39:26.676Z,60.20
2019-04-19T06:40:31.146Z,60.01
2019-04-19T06:41:36.810Z,58.98
2019-04-19T06:42:40.740Z,58.41
2019-04-19T06:43:43.102Z,57.36
2019-04-19T06:44:52.883Z,57.65
2019-04-19T06:45:49.121Z,57.46
2019-04-19T06:46:51.379Z,57.29
2019-04-19T06:47:46.494Z,56.05
2019-04-19T06:48:43.488Z,55.96
2019-04-19T06:49:40.678Z,55.76
2019-04-19T06:50:44.810Z,55.31
2019-04-19T06:51:50.518Z,55.12
2019-04-19T06:52:44.707Z,54.64
2019-04-19T06:53:52.114Z,54.45
2019-04-19T06:54:48.057Z,53.42
2019-04-19T06:55:49.912Z,52.66
2019-04-19T06:57:00.787Z,51.32
2019-04-19T06:58:01.600Z,50.07
2019-04-19T06:59:02.887Z,49.98
2019-04-19T07:00:08.435Z,50.17
2019-04-19T07:01:00.371Z,48.95
2019-04-19T07:01:57.938Z,48.28
2019-04-19T07:02:58.340Z,48.09
2019-04-19T07:03:59.937Z,47.32
2019-04-19T07:05:14.126Z,46.84
2019-04-19T07:06:14.373Z,46.26
2019-04-19T07:07:24.190Z,46.75
2019-04-19T07:08:43.773Z,46.86
2019-04-19T07:09:31.085Z,46.00
2019-04-19T07:10:38.349Z,46.58
2019-04-19T07:11:31.321Z,46.48
2019-04-19T07:12:31.180Z,46.79
2019-04-19T07:13:24.866Z,47.08
2019-04-19T07:14:20.657Z,46.70
2019-04-19T07:15:48.605Z,45.54
2019-04-19T07:16:51.471Z,44.68
2019-04-19T07:17:36.676Z,44.68
2019-04-19T07:18:36.158Z,45.09
2019-04-19T07:19:40.614Z,44.78
2019-04-19T07:20:36.106Z,44.61
2019-04-19T07:21:42.635Z,44.42
2019-04-19T07:22:44.606Z,44.51
2019-04-19T07:23:46.431Z,43.74
2019-04-19T07:24:49.724Z,44.03
2019-04-19T07:25:53.979Z,44.15
2019-04-19T07:26:49.337Z,44.24
2019-04-19T07:27:45.641Z,44.63
2019-04-19T07:28:36.507Z,44.44
2019-04-19T07:29:35.732Z,44.24
2019-04-19T07:30:37.256Z,44.17
2019-04-19T07:31:38.142Z,43.98
2019-04-19T07:32:41.738Z,43.60
2019-04-19T07:33:51.776Z,43.79
2019-04-19T07:34:56.809Z,42.44
2019-04-19T07:36:05.120Z,42.54
2019-04-19T07:37:03.458Z,42.54
2019-04-19T07:38:10.952Z,42.47
2019-04-19T07:39:20.583Z,42.85
2019-04-19T07:40:16.043Z,42.08
2019-04-19T07:41:14.513Z,41.99
2019-04-19T07:42:15.719Z,41.60
2019-04-19T07:43:05.546Z,41.99
2019-04-19T07:44:08.607Z,42.94
2019-04-19T07:45:00.196Z,42.56
2019-04-19T07:46:14.008Z,42.00
2019-04-19T07:47:11.696Z,42.10
2019-04-19T07:48:07.194Z,40.66
2019-04-19T07:49:01.882Z,40.76
2019-04-19T07:50:12.230Z,41.05
2019-04-19T07:51:09.614Z,40.66
2019-04-19T07:52:12.611Z,40.28
2019-04-19T07:53:08.303Z,40.56
2019-04-19T07:54:13.558Z,39.89
2019-04-19T07:58:50.304Z,38.54
2019-04-19T07:59:39.237Z,38.74
2019-04-19T08:00:42.792Z,39.24
2019-04-19T08:02:59.911Z,39.43
2019-04-19T08:04:02.210Z,38.37
2019-04-19T08:06:49.962Z,39.36
2019-04-19T08:08:56.671Z,39.36
2019-04-19T08:11:06.439Z,37.35
2019-04-19T08:12:03.182Z,37.45
2019-04-19T08:13:07.368Z,37.06
2019-04-19T08:15:04.380Z,36.58
2019-04-19T08:17:58.944Z,37.16
2019-04-19T08:28:09.871Z,35.94
2019-04-19T08:29:13.094Z,35.75
2019-04-19T08:30:04.470Z,36.23
2019-04-19T08:31:02.954Z,36.06
2019-04-19T08:32:04.232Z,35.48
2019-04-19T08:33:06.215Z,34.90
2019-04-19T08:34:09.405Z,35.50
2019-04-19T08:35:10.952Z,34.72
2019-04-19T08:36:11.426Z,35.30
2019-04-19T08:37:19.789Z,34.44
2019-04-19T08:38:16.438Z,34.16
2019-04-19T08:39:29.025Z,33.86
2019-04-19T08:40:32.374Z,33.37
2019-04-19T08:41:25.455Z,34.24
2019-04-19T08:42:36.008Z,33.20
2019-04-19T08:43:39.353Z,34.36
2019-04-19T08:44:36.484Z,34.64
2019-04-19T08:45:25.559Z,34.74
2019-04-19T08:46:23.942Z,34.47
2019-04-19T08:47:32.617Z,34.08
2019-04-19T08:48:36.447Z,32.73
2019-04-19T08:49:33.097Z,33.60
2019-04-19T08:50:28.667Z,32.65
2019-04-19T08:51:33.577Z,33.04
2019-04-19T08:52:35.119Z,31.96
2019-04-19T08:53:46.031Z,33.62
2019-04-19T08:54:53.495Z,33.33
2019-04-19T08:55:56.616Z,33.42
2019-04-19T08:56:45.548Z,34.10
2019-04-19T08:57:39.518Z,33.15
2019-04-19T08:58:54.555Z,32.38
2019-04-19T09:00:00.081Z,32.57
2019-04-19T09:01:07.098Z,32.09
2019-04-19T09:02:02.968Z,32.20
2019-04-19T09:02:59.428Z,32.20
2019-04-19T09:04:08.289Z,32.39
2019-04-19T09:05:07.432Z,32.21
2019-04-19T09:06:49.866Z,32.41
2019-04-19T09:07:38.525Z,32.21
2019-04-19T09:08:10.224Z,32.12
2019-04-19T09:09:10.223Z,31.54
2019-04-19T09:10:27.610Z,31.83
2019-04-19T09:12:19.994Z,31.93
2019-04-19T09:13:23.896Z,31.73
2019-04-19T09:14:17.245Z,30.57
2019-04-19T09:15:20.454Z,29.12
2019-04-19T09:16:22.001Z,29.50
2019-04-19T09:17:33.206Z,31.26
2019-04-19T09:18:38.874Z,30.88
2019-04-19T09:19:46.815Z,29.52
2019-04-19T09:20:28.638Z,29.33
2019-04-19T09:21:27.442Z,30.00
2019-04-19T09:22:33.695Z,29.80
2019-04-19T09:23:28.604Z,30.08
2019-04-19T09:24:26.996Z,29.80
2019-04-19T09:25:31.758Z,29.70
2019-04-19T09:26:36.599Z,30.08
2019-04-19T09:27:42.034Z,30.08
2019-04-19T09:29:45.429Z,30.49
2019-04-19T09:30:43.761Z,30.58
2019-04-19T09:31:38.500Z,30.99
2019-04-19T09:32:29.217Z,30.89
2019-04-19T09:33:32.610Z,29.83
2019-04-19T09:34:30.890Z,28.56
2019-04-19T09:35:36.936Z,28.49
2019-04-19T09:36:40.799Z,26.74
2019-04-19T09:37:46.656Z,26.93
2019-04-19T09:38:51.484Z,26.74
2019-04-19T09:39:45.452Z,25.67
2019-04-19T09:40:44.411Z,25.20
2019-04-19T09:41:44.446Z,25.10
2019-04-19T09:42:50.797Z,25.79
2019-04-19T09:43:52.213Z,23.95
2019-04-19T09:44:48.096Z,23.58
2019-04-19T09:45:44.832Z,23.79
2019-04-19T09:46:46.648Z,22.64
2019-04-19T09:47:48.065Z,21.61
2019-04-19T09:49:05.113Z,19.68
2019-04-19T09:50:03.953Z,18.73
2019-04-19T09:51:09.455Z,18.37
2019-04-19T09:52:13.463Z,16.42
2019-04-19T09:53:17.799Z,17.02
2019-04-19T09:54:14.360Z,16.93
2019-04-19T09:55:21.571Z,15.67
2019-04-19T09:56:17.287Z,15.40
2019-04-19T09:57:20.546Z,14.91
2019-04-19T09:58:21.248Z,14.73
2019-04-19T09:59:13.314Z,13.56
2019-04-19T10:00:11.112Z,13.75
2019-04-19T10:01:06.389Z,14.05
2019-04-19T10:02:08.442Z,14.54
2019-04-19T10:03:18.758Z,13.16
2019-04-19T10:04:09.396Z,13.37
2019-04-19T10:05:10.397Z,12.69
2019-04-19T10:06:13.000Z,12.29
2019-04-19T10:07:14.455Z,13.09
2019-04-19T10:08:15.654Z,13.09
2019-04-19T10:09:20.182Z,12.51
2019-04-19T10:10:18.740Z,11.71
2019-04-19T10:11:19.056Z,12.02
2019-04-19T10:12:20.042Z,12.03
2019-04-19T10:13:21.682Z,11.35
2019-04-19T10:14:23.442Z,11.16
2019-04-19T10:15:24.471Z,13.25
2019-04-19T10:16:26.321Z,11.04
2019-04-19T10:17:26.987Z,13.40
2019-04-19T10:18:28.405Z,12.20
2019-04-19T10:19:30.628Z,13.29
2019-04-19T10:20:31.206Z,12.51
2019-04-19T10:21:35.143Z,11.99
2019-04-19T10:22:34.802Z,13.28
2019-04-19T10:23:35.782Z,14.47
2019-04-19T10:24:36.877Z,13.79
2019-04-19T10:25:40.850Z,13.81
2019-04-19T10:26:40.332Z,11.05
2019-04-19T10:27:40.888Z,12.15
2019-04-19T10:28:42.300Z,10.06
2019-04-19T10:29:45.337Z,10.36
2019-04-19T10:30:45.099Z,10.75
2019-04-19T10:31:50.164Z,11.23
2019-04-19T10:32:48.749Z,11.41
2019-04-19T10:33:54.925Z,13.57
2019-04-19T10:34:50.658Z,13.73
2019-04-19T10:35:52.086Z,13.32
2019-04-19T10:36:55.572Z,15.16
2019-04-19T10:37:55.560Z,16.13
2019-04-19T10:38:57.472Z,17.59
2019-04-19T10:39:57.623Z,16.80
2019-04-19T10:40:59.648Z,16.11
2019-04-19T10:42:00.426Z,15.80
2019-04-19T10:43:03.116Z,15.19
2019-04-19T10:44:10.588Z,16.36
2019-04-19T10:45:05.823Z,18.52
2019-04-19T10:46:06.719Z,17.87
2019-04-19T10:47:07.342Z,16.62
2019-04-19T10:48:09.590Z,14.39
2019-04-19T10:49:19.344Z,15.69
2019-04-19T10:50:24.406Z,13.24
2019-04-19T10:51:12.875Z,14.14
2019-04-19T10:52:15.226Z,12.18
2019-04-19T10:53:17.817Z,12.87
2019-04-19T10:54:18.166Z,12.87
2019-04-19T10:55:18.417Z,12.77
2019-04-19T10:56:20.452Z,12.59
2019-04-19T10:57:21.368Z,11.88
2019-04-19T10:58:23.247Z,11.87
2019-04-19T10:59:24.708Z,12.27
2019-04-19T11:00:25.351Z,12.56
2019-04-19T11:01:27.421Z,11.47
2019-04-19T11:02:29.519Z,11.07
2019-04-19T11:03:30.699Z,11.07
2019-04-19T11:04:31.117Z,11.26
2019-04-19T11:05:32.521Z,10.86
2019-04-19T11:06:33.648Z,12.04
2019-04-19T11:07:38.059Z,10.08
2019-04-19T11:08:36.446Z,10.46
2019-04-19T11:09:37.878Z,11.05
2019-04-19T11:10:39.972Z,11.35
2019-04-19T11:11:41.576Z,10.96
2019-04-19T11:12:42.788Z,11.16
2019-04-19T11:13:43.431Z,11.18
2019-04-19T11:14:46.111Z,11.48
2019-04-19T11:15:46.638Z,11.09
2019-04-19T11:16:47.625Z,11.00
2019-04-19T11:17:49.828Z,10.71
2019-04-19T11:18:50.402Z,10.90
2019-04-19T11:20:05.627Z,10.31
2019-04-19T11:20:55.568Z,9.71
2019-04-19T11:21:55.916Z,10.69
2019-04-19T11:22:55.955Z,10.30
2019-04-19T11:23:57.820Z,11.27
2019-04-19T11:24:59.608Z,12.05
2019-04-19T11:26:00.940Z,11.85
2019-04-19T11:27:01.494Z,11.16
2019-04-19T11:28:03.033Z,10.67
2019-04-19T11:29:04.300Z,11.64
2019-04-19T11:30:05.713Z,11.35
2019-04-19T11:31:07.142Z,11.84
2019-04-19T11:32:08.544Z,11.94
2019-04-19T11:33:10.737Z,11.54
2019-04-19T11:34:11.334Z,12.41
2019-04-19T11:35:13.842Z,12.80
2019-04-19T11:36:15.330Z,12.50
2019-04-19T11:37:16.542Z,12.10
2019-04-19T11:38:16.880Z,14.32
2019-04-19T11:39:18.939Z,13.64
2019-04-19T11:40:19.701Z,13.82
2019-04-19T11:41:21.100Z,14.51
2019-04-19T11:42:23.270Z,14.78
2019-04-19T11:43:25.130Z,15.37
2019-04-19T11:44:27.429Z,16.34
2019-04-19T11:45:27.916Z,15.26
2019-04-19T11:46:28.020Z,14.78
2019-04-19T11:47:29.444Z,15.26
2019-04-19T11:48:33.003Z,15.45
2019-04-19T11:49:36.177Z,15.44
2019-04-19T11:50:33.706Z,16.02
2019-04-19T11:51:36.044Z,16.51
2019-04-19T11:52:37.621Z,16.50
2019-04-19T11:53:38.484Z,16.79
2019-04-19T11:54:39.115Z,16.79
2019-04-19T11:55:40.568Z,17.18
2019-04-19T11:56:48.506Z,16.88
2019-04-19T11:57:44.067Z,18.24
2019-04-19T11:58:44.695Z,17.46
2019-04-19T11:59:49.472Z,18.04
2019-04-19T12:00:48.087Z,17.46
2019-04-19T12:01:50.003Z,18.13
2019-04-19T12:02:50.228Z,19.38
2019-04-19T12:03:52.113Z,19.96
2019-04-19T12:04:53.004Z,20.45
2019-04-19T12:05:54.420Z,20.65
2019-04-19T12:06:56.486Z,21.13
2019-04-19T12:07:57.194Z,21.23
2019-04-19T12:08:58.610Z,21.02
2019-04-19T12:10:00.577Z,21.30
2019-04-19T12:11:02.139Z,21.59
2019-04-19T12:12:03.201Z,23.14
2019-04-19T12:13:04.114Z,21.11
2019-04-19T12:14:05.957Z,20.82
2019-04-19T12:15:08.231Z,22.36
2019-04-19T12:16:08.698Z,23.14
2019-04-19T12:17:11.007Z,22.75
2019-04-19T12:18:12.349Z,22.85
2019-04-19T12:19:12.376Z,21.88
2019-04-19T12:20:15.113Z,22.27
2019-04-19T12:21:15.424Z,22.08
2019-04-19T12:22:17.114Z,22.94
2019-04-19T12:23:17.978Z,22.45
2019-04-19T12:24:20.491Z,23.03
2019-04-19T12:25:21.587Z,23.61
2019-04-19T12:26:22.019Z,23.13
2019-04-19T12:27:23.476Z,23.12
2019-04-19T12:28:25.878Z,23.22
2019-04-19T12:29:34.636Z,24.09
2019-04-19T12:30:27.523Z,23.71
2019-04-19T12:31:29.571Z,22.84
2019-04-19T12:32:30.308Z,23.05
2019-04-19T12:33:31.729Z,22.37
2019-04-19T12:34:33.128Z,22.26
2019-04-19T12:35:34.960Z,22.74
2019-04-19T12:36:37.124Z,22.54
2019-04-19T12:37:37.407Z,23.12
2019-04-19T12:38:39.734Z,23.41
2019-04-19T12:39:41.091Z,23.41
2019-04-19T12:40:41.417Z,23.80
2019-04-19T12:41:43.876Z,23.91
2019-04-19T12:42:44.290Z,23.81
2019-04-19T12:43:45.874Z,22.94
2019-04-19T12:44:47.923Z,23.03
2019-04-19T12:45:51.887Z,22.74
2019-04-19T12:46:50.774Z,23.12
2019-04-19T12:47:51.155Z,23.12
2019-04-19T12:48:52.404Z,23.11
2019-04-19T12:49:59.580Z,22.91
2019-04-19T12:50:55.734Z,23.49
2019-04-19T12:51:57.649Z,23.87
2019-04-19T12:52:58.045Z,23.39
2019-04-19T12:54:00.253Z,23.87
2019-04-19T12:55:01.928Z,23.01
2019-04-19T12:56:02.114Z,23.21
2019-04-19T12:57:03.509Z,23.98
2019-04-19T12:58:05.858Z,24.17
2019-04-19T12:59:06.256Z,24.08
2019-04-19T13:00:07.842Z,23.21
2019-04-19T13:01:10.033Z,24.17
2019-04-19T13:02:11.655Z,24.08
2019-04-19T13:03:11.872Z,25.04
2019-04-19T13:04:13.083Z,24.45
2019-04-19T13:05:14.360Z,23.66
2019-04-19T13:06:15.754Z,24.82
2019-04-19T13:07:17.324Z,25.12
2019-04-19T13:08:19.047Z,25.60
2019-04-19T13:09:21.078Z,25.89
2019-04-19T13:10:21.266Z,25.70
2019-04-19T13:11:22.969Z,26.37
2019-04-19T13:12:24.033Z,26.46
2019-04-19T13:13:25.678Z,25.40
2019-04-19T13:14:27.896Z,25.60
2019-04-19T13:15:29.410Z,25.70
2019-04-19T13:16:30.347Z,25.60
2019-04-19T13:17:30.902Z,25.59
2019-04-19T13:18:32.303Z,25.20
2019-04-19T13:19:33.713Z,25.20
2019-04-19T13:20:36.916Z,25.78
2019-04-19T13:21:36.577Z,25.60
2019-04-19T13:22:38.640Z,25.21
2019-04-19T13:23:40.311Z,25.29
2019-04-19T13:24:40.590Z,24.72
2019-04-19T13:25:41.975Z,24.81
2019-04-19T13:26:43.392Z,25.09
2019-04-19T13:27:50.828Z,26.15
2019-04-19T13:28:47.078Z,26.25
2019-04-19T13:29:47.829Z,26.73
2019-04-19T13:30:52.577Z,25.86
2019-04-19T13:31:50.246Z,26.75
2019-04-19T13:32:52.176Z,26.17
2019-04-19T13:33:53.263Z,26.17
2019-04-19T13:34:54.893Z,25.78
2019-04-19T13:35:55.754Z,25.19
2019-04-19T13:36:57.515Z,25.18
2019-04-19T13:37:59.049Z,25.27
2019-04-19T13:38:59.905Z,25.56
2019-04-19T13:40:02.060Z,24.98
2019-04-19T13:41:02.916Z,24.98
2019-04-19T13:42:05.157Z,25.08
2019-04-19T13:43:05.356Z,25.66
2019-04-19T13:44:07.220Z,25.56
2019-04-19T13:45:17.358Z,25.18